createdAt,value
2018-08-16T00:01:06.840Z,6.20
2018-08-16T00:03:38.872Z,6.10
2018-08-16T00:06:10.902Z,5.80
2018-08-16T00:08:43.230Z,6.30
2018-08-16T00:11:15.258Z,6.70
2018-08-16T00:13:47.309Z,6.50
2018-08-16T00:16:19.326Z,6.90
2018-08-16T00:18:51.530Z,7.67
2018-08-16T00:21:23.575Z,6.67
2018-08-16T00:23:55.562Z,6.70
2018-08-16T00:26:27.554Z,7.63
2018-08-16T00:28:59.589Z,5.70
2018-08-16T00:31:31.607Z,6.73
2018-08-16T00:34:03.627Z,6.20
2018-08-16T00:36:35.647Z,8.23
2018-08-16T00:39:08.514Z,6.13
2018-08-16T00:41:40.506Z,5.50
2018-08-16T00:44:12.508Z,6.63
2018-08-16T00:46:44.519Z,6.33
2018-08-16T00:49:16.561Z,6.30
2018-08-16T00:51:48.595Z,7.40
2018-08-16T00:54:20.639Z,6.33
2018-08-16T00:56:52.648Z,6.33
2018-08-16T00:59:24.670Z,6.17
2018-08-16T01:01:56.674Z,6.53
2018-08-16T01:04:28.710Z,6.27
2018-08-16T01:07:00.742Z,7.10
2018-08-16T01:09:32.751Z,6.67
2018-08-16T01:12:04.754Z,7.47
2018-08-16T01:14:36.741Z,7.43
2018-08-16T01:17:08.983Z,6.97
2018-08-16T01:19:47.448Z,7.53
2018-08-16T01:22:19.497Z,6.87
2018-08-16T01:24:51.496Z,7.47
2018-08-16T01:27:23.511Z,6.67
2018-08-16T01:29:55.468Z,8.43
2018-08-16T01:32:27.445Z,7.53
2018-08-16T01:34:59.433Z,6.73
2018-08-16T01:37:31.407Z,8.20
2018-08-16T01:40:03.982Z,8.10
2018-08-16T01:42:36.770Z,7.90
2018-08-16T01:45:09.448Z,8.10
2018-08-16T01:47:41.427Z,8.87
2018-08-16T01:50:13.403Z,8.03
2018-08-16T01:52:45.374Z,8.10
2018-08-16T01:55:17.363Z,7.80
2018-08-16T01:57:49.323Z,8.17
2018-08-16T02:00:21.306Z,7.87
2018-08-16T02:02:53.348Z,7.10
2018-08-16T02:05:25.295Z,7.80
2018-08-16T02:07:57.309Z,8.47
2018-08-16T02:10:29.314Z,7.80
2018-08-16T02:13:01.287Z,7.67
2018-08-16T02:15:33.259Z,6.87
2018-08-16T02:18:05.975Z,8.20
2018-08-16T02:20:37.942Z,8.00
2018-08-16T02:23:09.953Z,7.97
2018-08-16T02:25:41.950Z,8.30
2018-08-16T02:28:13.954Z,8.07
2018-08-16T02:30:50.566Z,8.13
2018-08-16T02:33:22.555Z,9.40
2018-08-16T02:35:54.571Z,8.60
2018-08-16T02:38:26.563Z,8.90
2018-08-16T02:40:58.567Z,7.83
2018-08-16T02:43:30.574Z,8.60
2018-08-16T02:46:02.571Z,7.47
2018-08-16T02:48:34.559Z,7.50
2018-08-16T02:51:06.562Z,8.00
2018-08-16T02:53:38.534Z,8.57
2018-08-16T02:56:10.554Z,8.73
2018-08-16T02:58:42.576Z,11.77
2018-08-16T03:01:14.582Z,9.93
2018-08-16T03:03:46.568Z,9.60
2018-08-16T03:06:18.571Z,9.70
2018-08-16T03:08:50.558Z,8.17
2018-08-16T03:11:22.555Z,8.47
2018-08-16T03:14:02.164Z,8.13
2018-08-16T03:16:34.152Z,7.50
2018-08-16T03:19:06.178Z,9.27
2018-08-16T03:21:38.181Z,8.53
2018-08-16T03:24:10.151Z,8.80
2018-08-16T03:26:42.159Z,8.20
2018-08-16T03:29:14.192Z,8.20
2018-08-16T03:31:46.159Z,8.23
2018-08-16T03:34:18.160Z,9.10
2018-08-16T03:36:50.138Z,9.07
2018-08-16T03:39:22.088Z,8.67
2018-08-16T03:41:54.050Z,9.27
2018-08-16T03:44:26.054Z,8.77
2018-08-16T03:46:58.116Z,8.70
2018-08-16T03:49:30.094Z,9.50
2018-08-16T03:52:02.070Z,8.90
2018-08-16T03:54:34.074Z,9.67
2018-08-16T03:57:06.026Z,8.80
2018-08-16T03:59:38.011Z,8.10
2018-08-16T04:02:09.986Z,8.60
2018-08-16T04:04:42.013Z,8.10
2018-08-16T04:07:13.978Z,8.37
2018-08-16T04:09:45.942Z,9.03
2018-08-16T04:12:17.904Z,9.67
2018-08-16T04:14:49.859Z,9.13
2018-08-16T04:17:26.878Z,9.77
2018-08-16T04:19:58.863Z,9.50
2018-08-16T04:22:30.858Z,9.50
2018-08-16T04:25:03.303Z,8.97
2018-08-16T04:27:35.281Z,8.23
2018-08-16T04:30:07.314Z,8.67
2018-08-16T04:32:39.295Z,8.43
2018-08-16T04:35:11.370Z,9.90
2018-08-16T04:37:43.281Z,8.70
2018-08-16T04:40:15.303Z,9.17
2018-08-16T04:42:47.391Z,8.73
2018-08-16T04:45:23.399Z,8.87
2018-08-16T04:47:55.402Z,8.77
2018-08-16T04:50:27.415Z,9.47
2018-08-16T04:53:05.799Z,9.43
2018-08-16T04:55:37.814Z,9.43
2018-08-16T04:58:09.814Z,8.73
2018-08-16T05:00:41.847Z,8.70
2018-08-16T05:03:13.896Z,8.67
2018-08-16T05:05:45.890Z,9.30
2018-08-16T05:08:17.869Z,8.63
2018-08-16T05:10:49.864Z,10.00
2018-08-16T05:13:21.859Z,8.57
2018-08-16T05:15:53.856Z,8.83
2018-08-16T05:18:25.834Z,8.77
2018-08-16T05:20:57.846Z,8.60
2018-08-16T05:23:29.843Z,9.53
2018-08-16T05:26:01.823Z,9.47
2018-08-16T05:28:33.843Z,9.40
2018-08-16T05:31:05.843Z,7.53
2018-08-16T05:33:37.813Z,7.33
2018-08-16T05:36:09.809Z,8.33
2018-08-16T05:38:41.828Z,7.27
2018-08-16T05:41:13.831Z,7.40
2018-08-16T05:43:45.835Z,8.70
2018-08-16T05:46:17.868Z,7.70
2018-08-16T05:48:49.905Z,7.67
2018-08-16T05:51:21.888Z,7.83
2018-08-16T05:53:53.871Z,6.90
2018-08-16T05:56:25.893Z,7.20
2018-08-16T05:58:57.962Z,7.30
2018-08-16T06:01:30.022Z,7.77
2018-08-16T06:04:02.097Z,7.63
2018-08-16T06:06:34.130Z,7.80
2018-08-16T06:09:07.694Z,6.97
2018-08-16T06:11:39.733Z,7.10
2018-08-16T06:14:11.847Z,7.33
2018-08-16T06:16:43.967Z,7.20
2018-08-16T06:19:16.077Z,6.27
2018-08-16T06:21:48.169Z,6.77
2018-08-16T06:24:20.256Z,6.27
2018-08-16T06:26:52.311Z,5.93
2018-08-16T06:29:24.330Z,6.33
2018-08-16T06:31:56.342Z,7.30
2018-08-16T06:34:28.408Z,7.80
2018-08-16T06:37:00.434Z,7.30
2018-08-16T06:39:32.488Z,7.33
2018-08-16T06:42:04.757Z,7.07
2018-08-16T06:44:36.786Z,7.37
2018-08-16T06:47:13.102Z,7.17
2018-08-16T06:49:46.363Z,8.77
2018-08-16T06:52:18.398Z,8.13
2018-08-16T06:54:50.523Z,7.40
2018-08-16T06:57:22.541Z,7.40
2018-08-16T06:59:54.571Z,11.23
2018-08-16T07:02:26.985Z,9.07
2018-08-16T07:04:59.106Z,9.13
2018-08-16T07:07:31.139Z,7.80
2018-08-16T07:10:04.306Z,7.30
2018-08-16T07:12:36.448Z,9.40
2018-08-16T07:15:12.134Z,8.63
2018-08-16T07:17:44.624Z,7.70
2018-08-16T07:20:16.686Z,8.57
2018-08-16T07:22:48.719Z,7.90
2018-08-16T07:25:20.764Z,8.70
2018-08-16T07:27:52.802Z,7.63
2018-08-16T07:30:24.847Z,7.90
2018-08-16T07:32:56.871Z,11.60
2018-08-16T07:35:28.993Z,7.00
2018-08-16T07:38:01.043Z,7.00
2018-08-16T07:40:33.083Z,7.60
2018-08-16T07:43:05.110Z,7.13
2018-08-16T07:45:37.216Z,9.20
2018-08-16T07:48:09.327Z,7.63
2018-08-16T07:50:41.349Z,6.97
2018-08-16T07:53:13.372Z,7.00
2018-08-16T07:55:45.453Z,7.30
2018-08-16T07:58:17.523Z,7.07
2018-08-16T08:00:49.563Z,7.90
2018-08-16T08:03:21.576Z,6.97
2018-08-16T08:05:53.583Z,6.80
2018-08-16T08:08:25.635Z,6.30
2018-08-16T08:10:57.650Z,7.40
2018-08-16T08:13:29.707Z,6.90
2018-08-16T08:16:01.731Z,7.10
2018-08-16T08:18:33.763Z,8.33
2018-08-16T08:21:05.780Z,7.37
2018-08-16T08:23:37.857Z,7.00
2018-08-16T08:26:09.843Z,7.80
2018-08-16T08:28:41.866Z,7.43
2018-08-16T08:31:13.870Z,7.10
2018-08-16T08:33:45.932Z,6.67
2018-08-16T08:36:30.287Z,6.90
2018-08-16T08:39:02.568Z,6.87
2018-08-16T08:41:34.506Z,7.53
2018-08-16T08:44:18.592Z,6.80
2018-08-16T08:46:51.452Z,7.27
2018-08-16T08:49:23.520Z,6.10
2018-08-16T08:51:55.559Z,6.63
2018-08-16T08:54:55.123Z,8.00
2018-08-16T08:57:38.778Z,5.53
2018-08-16T09:00:10.803Z,5.00
2018-08-16T09:02:42.933Z,6.63
2018-08-16T09:05:15.014Z,6.80
2018-08-16T09:07:47.075Z,7.63
2018-08-16T09:11:26.875Z,6.00
2018-08-16T09:14:10.392Z,5.30
2018-08-16T09:16:42.395Z,5.67
2018-08-16T09:19:14.436Z,4.90
2018-08-16T09:21:46.454Z,5.20
2018-08-16T09:24:18.471Z,5.10
2018-08-16T09:26:50.467Z,5.27
2018-08-16T09:30:38.458Z,5.20
2018-08-16T09:33:21.943Z,4.57
2018-08-16T09:35:53.928Z,4.90
2018-08-16T09:38:25.932Z,4.53
2018-08-16T09:40:57.949Z,4.07
2018-08-16T09:43:30.024Z,5.20
2018-08-16T09:47:13.076Z,4.30
2018-08-16T09:49:47.309Z,4.80
2018-08-16T09:52:20.211Z,3.90
2018-08-16T09:54:52.445Z,3.93
2018-08-16T09:57:24.515Z,3.30
2018-08-16T09:59:56.566Z,4.37
2018-08-16T10:02:28.603Z,3.80
2018-08-16T10:05:00.655Z,3.47
2018-08-16T10:07:32.730Z,3.70
2018-08-16T10:10:04.747Z,3.73
2018-08-16T10:12:36.759Z,3.70
2018-08-16T10:15:08.768Z,5.30
2018-08-16T10:17:40.787Z,6.77
2018-08-16T10:20:12.848Z,4.13
2018-08-16T10:22:44.875Z,4.27
2018-08-16T10:25:16.903Z,4.00
2018-08-16T10:27:48.901Z,3.20
2018-08-16T10:33:07.954Z,4.43
2018-08-16T10:35:39.936Z,4.10
2018-08-16T10:38:11.927Z,3.73
2018-08-16T10:40:43.933Z,4.60
2018-08-16T10:43:15.915Z,4.00
2018-08-16T10:45:48.191Z,2.60
2018-08-16T10:48:20.175Z,2.90
2018-08-16T10:50:52.234Z,3.50
2018-08-16T10:53:24.344Z,3.13
2018-08-16T10:55:56.660Z,3.13
2018-08-16T10:58:29.111Z,3.00
2018-08-16T11:01:03.259Z,3.13
2018-08-16T11:03:35.264Z,3.20
2018-08-16T11:06:07.287Z,2.60
2018-08-16T11:08:39.291Z,2.90
2018-08-16T11:11:11.318Z,3.20
2018-08-16T11:13:43.303Z,3.13
2018-08-16T11:16:15.357Z,2.67
2018-08-16T11:18:47.430Z,3.07
2018-08-16T11:21:19.524Z,2.70
2018-08-16T11:23:51.502Z,3.00
2018-08-16T11:26:23.495Z,4.73
2018-08-16T11:28:55.502Z,3.57
2018-08-16T11:31:27.502Z,3.60
2018-08-16T11:33:59.514Z,2.60
2018-08-16T11:36:31.539Z,2.60
2018-08-16T11:39:05.406Z,2.83
2018-08-16T11:41:37.457Z,3.13
2018-08-16T11:44:09.432Z,2.60
2018-08-16T11:46:41.590Z,3.00
2018-08-16T11:49:13.543Z,2.77
2018-08-16T11:51:45.667Z,2.83
2018-08-16T11:54:17.900Z,3.87
2018-08-16T11:56:49.967Z,2.53
2018-08-16T11:59:22.042Z,2.37
2018-08-16T12:01:54.106Z,2.63
2018-08-16T12:04:26.129Z,2.50
2018-08-16T12:06:58.251Z,3.20
2018-08-16T12:09:30.252Z,2.50
2018-08-16T12:12:02.375Z,3.10
2018-08-16T12:14:34.409Z,2.60
2018-08-16T12:17:06.470Z,2.47
2018-08-16T12:19:38.478Z,3.03
2018-08-16T12:22:10.479Z,2.40
2018-08-16T12:24:42.471Z,3.03
2018-08-16T12:27:14.561Z,2.63
2018-08-16T12:29:46.556Z,3.00
2018-08-16T12:32:18.535Z,2.27
2018-08-16T12:34:50.547Z,3.00
2018-08-16T12:37:22.546Z,3.30
2018-08-16T12:39:54.511Z,3.00
2018-08-16T12:42:26.538Z,3.20
2018-08-16T12:44:58.567Z,2.97
2018-08-16T12:47:30.548Z,2.50
2018-08-16T12:50:02.597Z,3.03
2018-08-16T12:52:34.603Z,2.57
2018-08-16T12:55:06.590Z,2.70
2018-08-16T12:57:38.584Z,2.57
2018-08-16T13:00:14.495Z,2.73
2018-08-16T13:02:47.484Z,2.10
2018-08-16T13:05:19.492Z,2.33
2018-08-16T13:07:51.503Z,2.13
2018-08-16T13:10:23.489Z,2.97
2018-08-16T13:12:55.446Z,4.03
2018-08-16T13:15:27.455Z,2.67
2018-08-16T13:17:59.499Z,2.40
2018-08-16T13:20:31.531Z,4.07
2018-08-16T13:23:03.555Z,2.10
2018-08-16T13:25:35.543Z,2.63
2018-08-16T13:28:07.557Z,2.63
2018-08-16T13:30:39.554Z,2.87
2018-08-16T13:33:11.587Z,2.80
2018-08-16T13:35:43.656Z,2.27
2018-08-16T13:38:15.644Z,2.40
2018-08-16T13:40:47.687Z,2.03
2018-08-16T13:43:19.675Z,2.57
2018-08-16T13:45:51.691Z,4.17
2018-08-16T13:48:23.693Z,2.57
2018-08-16T13:50:55.666Z,2.40
2018-08-16T13:53:27.660Z,1.90
2018-08-16T13:55:59.794Z,1.93
2018-08-16T13:58:31.854Z,3.00
2018-08-16T14:01:03.866Z,2.50
2018-08-16T14:03:35.839Z,2.83
2018-08-16T14:06:07.866Z,2.40
2018-08-16T14:08:39.907Z,2.00
2018-08-16T14:11:11.992Z,2.00
2018-08-16T14:13:44.010Z,2.20
2018-08-16T14:16:15.995Z,3.10
2018-08-16T14:18:48.049Z,2.30
2018-08-16T14:21:20.038Z,2.07
2018-08-16T14:23:52.075Z,2.00
2018-08-16T14:26:24.171Z,2.27
2018-08-16T14:28:56.203Z,1.70
2018-08-16T14:31:28.179Z,2.17
2018-08-16T14:34:00.268Z,2.10
2018-08-16T14:36:32.263Z,1.90
2018-08-16T14:39:06.965Z,2.07
2018-08-16T14:41:39.003Z,2.13
2018-08-16T14:44:11.021Z,1.87
2018-08-16T14:46:43.036Z,2.57
2018-08-16T14:49:15.807Z,2.70
2018-08-16T14:51:47.788Z,1.93
2018-08-16T14:54:19.766Z,2.57
2018-08-16T14:56:51.776Z,2.20
2018-08-16T14:59:23.800Z,2.40
2018-08-16T15:01:55.831Z,1.80
2018-08-16T15:04:27.830Z,2.20
2018-08-16T15:06:59.882Z,2.90
2018-08-16T15:16:39.907Z,3.73
2018-08-16T15:19:11.949Z,2.40
2018-08-16T15:21:43.956Z,2.33
2018-08-16T15:24:17.716Z,2.43
2018-08-16T15:26:50.019Z,2.60
2018-08-16T15:29:22.015Z,2.07
2018-08-16T15:31:54.074Z,2.00
2018-08-16T15:34:26.064Z,2.17
2018-08-16T15:36:58.106Z,2.00
2018-08-16T15:39:30.116Z,2.20
2018-08-16T15:42:02.120Z,2.40
2018-08-16T15:44:34.094Z,1.90
2018-08-16T15:47:06.069Z,2.30
2018-08-16T15:49:38.122Z,2.17
2018-08-16T15:52:10.098Z,2.40
2018-08-16T15:54:42.132Z,3.20
2018-08-16T15:57:14.234Z,2.20
2018-08-16T15:59:46.232Z,2.23
2018-08-16T16:02:18.179Z,2.20
2018-08-16T16:04:50.190Z,2.40
2018-08-16T16:07:22.195Z,2.33
2018-08-16T16:09:54.168Z,2.30
2018-08-16T16:12:26.148Z,1.97
2018-08-16T16:14:58.582Z,2.37
2018-08-16T16:17:30.598Z,2.27
2018-08-16T16:20:02.683Z,2.13
2018-08-16T16:22:35.071Z,2.80
2018-08-16T16:25:07.690Z,2.50
2018-08-16T16:27:39.770Z,2.50
2018-08-16T16:30:11.796Z,2.33
2018-08-16T16:32:43.813Z,2.33
2018-08-16T16:35:15.808Z,2.40
2018-08-16T16:37:47.788Z,2.87
2018-08-16T16:40:19.842Z,3.50
2018-08-16T16:42:51.927Z,2.23
2018-08-16T16:45:23.912Z,2.20
2018-08-16T16:47:55.897Z,2.60
2018-08-16T16:50:27.922Z,3.20
2018-08-16T16:53:00.107Z,2.77
2018-08-16T16:55:32.084Z,2.60
2018-08-16T16:58:04.614Z,2.27
2018-08-16T17:00:36.640Z,2.80
2018-08-16T17:03:08.700Z,2.60
2018-08-16T17:05:40.713Z,3.10
2018-08-16T17:08:12.815Z,2.47
2018-08-16T17:10:44.883Z,2.60
2018-08-16T17:13:16.874Z,2.70
2018-08-16T17:15:48.886Z,2.87
2018-08-16T17:18:20.898Z,2.40
2018-08-16T17:20:53.095Z,2.20
2018-08-16T17:23:25.127Z,2.80
2018-08-16T17:25:57.251Z,2.70
2018-08-16T17:28:29.309Z,2.50
2018-08-16T17:31:01.295Z,2.40
2018-08-16T17:33:33.317Z,2.50
2018-08-16T17:36:05.338Z,2.83
2018-08-16T17:38:37.356Z,4.10
2018-08-16T17:41:09.451Z,3.00
2018-08-16T17:43:41.374Z,2.43
2018-08-16T17:46:13.387Z,2.90
2018-08-16T17:48:45.426Z,2.57
2018-08-16T17:51:17.464Z,2.50
2018-08-16T17:53:49.531Z,2.77
2018-08-16T17:56:21.551Z,2.83
2018-08-16T17:58:53.746Z,2.93
2018-08-16T18:01:25.813Z,2.80
2018-08-16T18:03:57.987Z,2.50
2018-08-16T18:06:30.028Z,3.40
2018-08-16T18:09:02.130Z,2.60
2018-08-16T18:11:34.253Z,2.63
2018-08-16T18:14:06.450Z,2.73
2018-08-16T18:16:38.478Z,3.40
2018-08-16T18:19:10.566Z,3.43
2018-08-16T18:21:42.629Z,3.23
2018-08-16T18:24:14.708Z,3.37
2018-08-16T18:26:46.824Z,4.40
2018-08-16T18:29:18.871Z,3.50
2018-08-16T18:31:51.033Z,5.10
2018-08-16T18:34:23.051Z,4.40
2018-08-16T18:36:55.217Z,3.87
2018-08-16T18:39:27.297Z,4.77
2018-08-16T18:41:59.517Z,3.20
2018-08-16T18:44:31.669Z,3.83
2018-08-16T18:47:03.684Z,3.17
2018-08-16T18:49:35.801Z,3.50
2018-08-16T18:52:07.890Z,3.30
2018-08-16T18:54:39.961Z,3.33
2018-08-16T18:57:12.054Z,3.07
2018-08-16T18:59:44.106Z,2.83
2018-08-16T19:02:16.177Z,3.40
2018-08-16T19:04:48.230Z,3.50
2018-08-16T19:07:20.306Z,3.07
2018-08-16T19:09:52.418Z,3.10
2018-08-16T19:12:24.574Z,3.30
2018-08-16T19:14:56.567Z,3.03
2018-08-16T19:17:28.571Z,3.60
2018-08-16T19:20:00.687Z,3.30
2018-08-16T19:22:32.811Z,3.27
2018-08-16T19:25:05.694Z,3.20
2018-08-16T19:27:37.883Z,3.50
2018-08-16T19:30:10.011Z,3.33
2018-08-16T19:32:42.020Z,3.27
2018-08-16T19:35:14.200Z,3.10
2018-08-16T19:37:46.285Z,3.90
2018-08-16T19:40:18.341Z,4.47
2018-08-16T19:42:50.442Z,4.20
2018-08-16T19:45:22.882Z,4.03
2018-08-16T19:47:54.933Z,3.03
2018-08-16T19:50:26.990Z,3.60
2018-08-16T19:52:59.163Z,3.30
2018-08-16T19:55:31.308Z,4.70
2018-08-16T19:58:03.397Z,3.00
2018-08-16T20:00:35.447Z,4.77
2018-08-16T20:03:07.688Z,5.23
2018-08-16T20:05:39.778Z,3.87
2018-08-16T20:08:11.820Z,3.53
2018-08-16T20:10:43.873Z,3.80
2018-08-16T20:13:15.932Z,3.73
2018-08-16T20:15:47.985Z,3.93
2018-08-16T20:18:21.263Z,4.10
2018-08-16T20:20:53.369Z,3.43
2018-08-16T20:23:25.560Z,3.80
2018-08-16T20:25:57.715Z,4.63
2018-08-16T20:28:29.882Z,3.77
2018-08-16T20:31:01.974Z,4.13
2018-08-16T20:33:34.002Z,3.47
2018-08-16T20:36:06.025Z,4.60
2018-08-16T20:38:38.130Z,4.20
2018-08-16T20:41:10.222Z,3.90
2018-08-16T20:43:42.269Z,3.90
2018-08-16T20:46:14.380Z,4.57
2018-08-16T20:48:46.395Z,3.30
2018-08-16T20:51:18.371Z,4.30
2018-08-16T20:53:50.517Z,3.60
2018-08-16T20:56:22.519Z,4.70
2018-08-16T20:58:54.551Z,3.87
2018-08-16T21:01:26.546Z,4.23
2018-08-16T21:03:58.515Z,4.23
2018-08-16T21:06:30.513Z,4.40
2018-08-16T21:09:03.923Z,4.33
2018-08-16T21:11:35.907Z,4.73
2018-08-16T21:14:07.994Z,4.10
2018-08-16T21:16:39.971Z,4.90
2018-08-16T21:19:11.982Z,3.77
2018-08-16T21:21:44.027Z,4.73
2018-08-16T21:24:15.991Z,4.37
2018-08-16T21:26:47.955Z,4.53
2018-08-16T21:29:19.943Z,4.93
2018-08-16T21:31:51.934Z,4.50
2018-08-16T21:34:24.036Z,4.93
2018-08-16T21:36:55.971Z,4.47
2018-08-16T21:39:27.958Z,4.37
2018-08-16T21:41:59.933Z,4.87
2018-08-16T21:44:31.898Z,4.10
2018-08-16T21:47:03.881Z,4.07
2018-08-16T21:49:35.877Z,4.00
2018-08-16T21:52:08.305Z,4.40
2018-08-16T21:54:40.276Z,5.50
2018-08-16T21:57:12.253Z,4.70
2018-08-16T21:59:44.232Z,3.93
2018-08-16T22:02:16.219Z,4.30
2018-08-16T22:04:48.188Z,5.40
2018-08-16T22:07:29.959Z,4.97
2018-08-16T22:10:01.939Z,4.80
2018-08-16T22:12:33.945Z,4.30
2018-08-16T22:15:05.908Z,4.47
2018-08-16T22:17:37.898Z,4.27
2018-08-16T22:20:09.914Z,4.90
2018-08-16T22:22:41.940Z,4.57
2018-08-16T22:25:13.974Z,4.80
2018-08-16T22:27:46.032Z,4.70
2018-08-16T22:30:18.046Z,5.03
2018-08-16T22:32:50.060Z,5.13
2018-08-16T22:35:22.031Z,4.97
2018-08-16T22:37:54.033Z,5.10
2018-08-16T22:40:26.028Z,6.40
2018-08-16T22:42:58.035Z,5.03
2018-08-16T22:45:30.025Z,4.50
2018-08-16T22:48:02.040Z,4.90
2018-08-16T22:50:34.113Z,4.77
2018-08-16T22:53:06.147Z,4.80
2018-08-16T22:55:38.142Z,4.50
2018-08-16T22:58:10.160Z,4.60
2018-08-16T23:00:42.177Z,4.53
2018-08-16T23:03:14.310Z,5.73
2018-08-16T23:05:46.309Z,5.00
2018-08-16T23:08:18.312Z,4.97
2018-08-16T23:10:50.313Z,5.47
2018-08-16T23:13:22.330Z,5.40
2018-08-16T23:15:54.306Z,5.07
2018-08-16T23:18:26.327Z,5.40
2018-08-16T23:20:58.314Z,5.30
2018-08-16T23:23:30.307Z,5.47
2018-08-16T23:26:02.274Z,5.53
2018-08-16T23:28:34.269Z,5.33
2018-08-16T23:31:06.234Z,5.13
2018-08-16T23:33:38.212Z,5.50
2018-08-16T23:36:10.170Z,6.00
2018-08-16T23:38:42.168Z,7.23
2018-08-16T23:41:14.119Z,7.07
2018-08-16T23:43:46.120Z,5.70
2018-08-16T23:46:18.126Z,5.60
2018-08-16T23:48:50.095Z,5.30
2018-08-16T23:51:22.155Z,5.10
2018-08-16T23:53:54.134Z,4.70
2018-08-16T23:56:26.120Z,9.37
2018-08-16T23:58:58.143Z,4.77
